Time;durP1;ratioP1;P1;durP2;ratioP2;P2;SDS_P1;SDS_P2;PMS_P1;PMS_P2;Temp;Humidity;BMP_temperature;BMP_pressure;BME280_temperature;BME280_humidity;BME280_pressure;Samples;Min_cycle;Max_cycle;Signal;HPM_P1;HPM_P2
2022/11/09 00:01:16;;;;;;;285.70;129.23;;;;;;;;;;5010485;28;20299;-54
2022/11/09 00:03:42;;;;;;;304.40;136.73;;;;;;;;;;4996821;28;20265;-54
2022/11/09 00:06:08;;;;;;;299.57;136.13;;;;;;;;;;5009128;28;20255;-54
2022/11/09 00:08:36;;;;;;;300.30;135.87;;;;;;;;;;5010255;28;20299;-54
2022/11/09 00:11:07;;;;;;;310.83;141.40;;;;;;;;;;5009088;28;20661;-54
2022/11/09 00:13:37;;;;;;;292.03;132.23;;;;;;;;;;5010123;28;20279;-54
2022/11/09 00:16:03;;;;;;;297.40;135.53;;;;;;;;;;5005396;28;20214;-54
2022/11/09 00:18:29;;;;;;;295.80;135.03;;;;;;;;;;5009586;28;20181;-54
2022/11/09 00:20:55;;;;;;;303.20;138.93;;;;;;;;;;5010645;28;20177;-54
2022/11/09 00:23:21;;;;;;;296.33;134.83;;;;;;;;;;5009996;28;20304;-53
2022/11/09 00:25:47;;;;;;;297.37;135.57;;;;;;;;;;5009804;28;20295;-53
2022/11/09 00:28:13;;;;;;;290.10;133.30;;;;;;;;;;5010009;28;20259;-53
2022/11/09 00:30:39;;;;;;;300.33;136.30;;;;;;;;;;5007881;28;20197;-53
2022/11/09 00:33:05;;;;;;;300.10;136.83;;;;;;;;;;5010218;28;20708;-54
2022/11/09 00:35:31;;;;;;;287.63;131.23;;;;;;;;;;5009094;28;20210;-53
2022/11/09 00:37:57;;;;;;;295.83;136.20;;;;;;;;;;5010100;28;20681;-52
2022/11/09 00:40:23;;;;;;;273.90;128.27;;;;;;;;;;5001906;28;20391;-54
2022/11/09 00:42:49;;;;;;;281.43;130.20;;;;;;;;;;5009770;28;20828;-54
2022/11/09 00:45:16;;;;;;;300.30;137.90;;;;;;;;;;5010122;28;20181;-54
2022/11/09 00:47:41;;;;;;;283.37;131.70;;;;;;;;;;5009660;28;20285;-54
2022/11/09 00:50:08;;;;;;;289.07;134.90;;;;;;;;;;5008092;28;20212;-54
2022/11/09 00:52:33;;;;;;;288.30;133.60;;;;;;;;;;5008017;28;20213;-54
2022/11/09 00:54:59;;;;;;;297.63;139.17;;;;;;;;;;5005865;28;20573;-54
2022/11/09 00:57:25;;;;;;;295.17;137.63;;;;;;;;;;5008730;28;20212;-54
2022/11/09 00:59:52;;;;;;;268.97;126.33;;;;;;;;;;5009521;28;20177;-54
2022/11/09 01:02:18;;;;;;;287.73;135.77;;;;;;;;;;5004449;28;20213;-54
2022/11/09 01:04:44;;;;;;;296.53;136.97;;;;;;;;;;5002723;28;20217;-54
2022/11/09 01:07:10;;;;;;;292.70;134.90;;;;;;;;;;5008420;28;20221;-53
2022/11/09 01:09:36;;;;;;;300.33;141.00;;;;;;;;;;5003412;28;20239;-54
2022/11/09 01:12:02;;;;;;;288.23;132.47;;;;;;;;;;5001390;28;20181;-54
2022/11/09 01:14:28;;;;;;;297.20;136.97;;;;;;;;;;5008580;28;20216;-53
2022/11/09 01:16:54;;;;;;;283.07;132.17;;;;;;;;;;5007740;28;20220;-53
2022/11/09 01:19:20;;;;;;;302.83;136.80;;;;;;;;;;5003272;28;20212;-54
2022/11/09 01:21:46;;;;;;;298.73;135.67;;;;;;;;;;5008724;28;20220;-54
2022/11/09 01:24:12;;;;;;;299.57;135.97;;;;;;;;;;5007995;28;20637;-53
2022/11/09 01:26:38;;;;;;;288.90;132.20;;;;;;;;;;5008986;28;20796;-54
2022/11/09 01:29:04;;;;;;;293.63;134.37;;;;;;;;;;5006255;28;20308;-54
2022/11/09 01:31:30;;;;;;;298.33;136.63;;;;;;;;;;5005265;28;20292;-54
2022/11/09 01:33:57;;;;;;;302.70;137.97;;;;;;;;;;5008772;28;20219;-52
2022/11/09 01:36:23;;;;;;;295.93;134.57;;;;;;;;;;5009220;28;20208;-54
2022/11/09 01:38:50;;;;;;;300.17;135.67;;;;;;;;;;5007019;28;20223;-54
2022/11/09 01:41:18;;;;;;;290.33;133.83;;;;;;;;;;5008390;28;20616;-54
2022/11/09 01:43:45;;;;;;;288.43;133.17;;;;;;;;;;5008340;28;20224;-54
2022/11/09 01:46:11;;;;;;;289.30;133.93;;;;;;;;;;5008522;28;20223;-52
2022/11/09 01:48:49;;;;;;;285.73;135.10;;;;;;;;;;5004776;28;20181;-54
2022/11/09 01:51:18;;;;;;;287.73;134.77;;;;;;;;;;5005520;28;20268;-53
2022/11/09 01:53:47;;;;;;;283.03;131.70;;;;;;;;;;5008536;28;20212;-54
2022/11/09 01:56:14;;;;;;;271.43;128.23;;;;;;;;;;5006911;28;20239;-54
2022/11/09 01:58:48;;;;;;;262.07;124.50;;;;;;;;;;5007219;28;20205;-54
2022/11/09 02:01:15;;;;;;;278.07;130.00;;;;;;;;;;5007278;28;20633;-53
2022/11/09 02:03:49;;;;;;;275.70;130.03;;;;;;;;;;5005695;28;20188;-54
2022/11/09 02:06:16;;;;;;;276.47;128.13;;;;;;;;;;5007801;28;20222;-53
2022/11/09 02:08:42;;;;;;;286.27;133.07;;;;;;;;;;5007744;28;20573;-54
2022/11/09 02:11:10;;;;;;;270.90;128.53;;;;;;;;;;4994231;28;20239;-54
2022/11/09 02:13:38;;;;;;;269.40;125.37;;;;;;;;;;5009063;28;20707;-54
2022/11/09 02:16:04;;;;;;;259.17;123.13;;;;;;;;;;5003125;28;20500;-53
2022/11/09 02:18:30;;;;;;;274.30;126.40;;;;;;;;;;5004671;28;20533;-54
2022/11/09 02:20:57;;;;;;;297.27;134.30;;;;;;;;;;5008958;28;20177;-54
2022/11/09 02:23:23;;;;;;;282.13;129.50;;;;;;;;;;5007259;28;20306;-54
2022/11/09 02:25:52;;;;;;;280.73;129.43;;;;;;;;;;5006388;28;20367;-52
2022/11/09 02:28:19;;;;;;;280.23;130.87;;;;;;;;;;5004805;28;20249;-53
2022/11/09 02:30:46;;;;;;;279.93;129.60;;;;;;;;;;5006332;28;20193;-54
2022/11/09 02:33:12;;;;;;;276.53;128.20;;;;;;;;;;5005542;28;20201;-54
2022/11/09 02:35:38;;;;;;;281.33;129.70;;;;;;;;;;5010707;28;20632;-53
2022/11/09 02:38:05;;;;;;;261.90;123.80;;;;;;;;;;5009419;28;20232;-54
2022/11/09 02:40:35;;;;;;;287.23;133.03;;;;;;;;;;5011249;28;20585;-54
2022/11/09 02:43:01;;;;;;;271.57;126.27;;;;;;;;;;5007694;28;20231;-54
2022/11/09 02:45:27;;;;;;;272.60;127.73;;;;;;;;;;5003110;28;20264;-54
2022/11/09 02:47:53;;;;;;;268.23;127.33;;;;;;;;;;5007232;28;20261;-53
2022/11/09 02:50:19;;;;;;;277.17;129.00;;;;;;;;;;5005564;28;20216;-53
2022/11/09 02:52:45;;;;;;;272.07;127.77;;;;;;;;;;5007024;28;20223;-54
2022/11/09 02:55:11;;;;;;;271.63;126.20;;;;;;;;;;5011439;28;20295;-54
2022/11/09 02:57:37;;;;;;;268.63;127.63;;;;;;;;;;4993093;28;20284;-54
2022/11/09 03:00:04;;;;;;;275.90;128.20;;;;;;;;;;5009858;28;20264;-53
2022/11/09 03:02:31;;;;;;;278.00;129.83;;;;;;;;;;5008942;28;20219;-54
2022/11/09 03:04:57;;;;;;;266.63;125.73;;;;;;;;;;5011626;28;20235;-54
2022/11/09 03:07:22;;;;;;;274.13;127.20;;;;;;;;;;5011248;28;20250;-54
2022/11/09 03:09:48;;;;;;;260.23;123.03;;;;;;;;;;5011299;28;20291;-54
2022/11/09 03:12:29;;;;;;;281.60;130.17;;;;;;;;;;5008011;28;20182;-54
2022/11/09 03:14:56;;;;;;;270.33;126.90;;;;;;;;;;5007990;28;20212;-54
2022/11/09 03:17:22;;;;;;;263.20;125.07;;;;;;;;;;5010735;28;20235;-53
2022/11/09 03:19:48;;;;;;;259.07;124.00;;;;;;;;;;5011105;28;20224;-53
2022/11/09 03:22:15;;;;;;;265.40;124.63;;;;;;;;;;5001217;28;20213;-54
2022/11/09 03:24:40;;;;;;;252.80;120.67;;;;;;;;;;5009215;28;20181;-53
2022/11/09 03:27:06;;;;;;;256.07;122.33;;;;;;;;;;5010902;28;20231;-53
2022/11/09 03:29:32;;;;;;;238.10;116.20;;;;;;;;;;5011339;28;20937;-54
2022/11/09 03:31:58;;;;;;;247.63;119.20;;;;;;;;;;5008945;28;20205;-54
2022/11/09 03:34:24;;;;;;;256.17;122.43;;;;;;;;;;5010754;28;20254;-53
2022/11/09 03:36:50;;;;;;;255.77;121.70;;;;;;;;;;5006293;28;20278;-54
2022/11/09 03:39:16;;;;;;;237.93;116.37;;;;;;;;;;5011302;28;20181;-54
2022/11/09 03:41:42;;;;;;;247.30;118.93;;;;;;;;;;5007327;28;20299;-54
2022/11/09 03:44:08;;;;;;;216.70;111.00;;;;;;;;;;5010144;28;20292;-54
2022/11/09 03:46:34;;;;;;;247.23;120.37;;;;;;;;;;5010090;28;20224;-54
2022/11/09 03:49:00;;;;;;;240.73;117.67;;;;;;;;;;5004241;28;20208;-53
2022/11/09 03:51:26;;;;;;;226.67;112.83;;;;;;;;;;5010633;28;20169;-53
2022/11/09 03:53:52;;;;;;;228.83;113.07;;;;;;;;;;5011562;28;20200;-53
2022/11/09 03:56:18;;;;;;;194.93;104.57;;;;;;;;;;5007536;28;20705;-54
2022/11/09 03:58:44;;;;;;;228.13;113.57;;;;;;;;;;5010566;28;20213;-54
2022/11/09 04:01:10;;;;;;;243.87;122.17;;;;;;;;;;5010291;28;20213;-54
2022/11/09 04:03:36;;;;;;;224.53;114.07;;;;;;;;;;5010890;28;20271;-54
2022/11/09 04:06:02;;;;;;;229.67;115.73;;;;;;;;;;5011138;28;20197;-54
2022/11/09 04:08:28;;;;;;;230.90;115.80;;;;;;;;;;5010709;28;20220;-54
2022/11/09 04:10:54;;;;;;;244.70;119.63;;;;;;;;;;5004573;28;20216;-53
2022/11/09 04:13:20;;;;;;;226.17;113.73;;;;;;;;;;5006455;28;20212;-53
2022/11/09 04:15:46;;;;;;;230.37;116.87;;;;;;;;;;5009944;28;20225;-54
2022/11/09 04:18:13;;;;;;;229.90;116.90;;;;;;;;;;5009767;28;20189;-54
2022/11/09 04:20:39;;;;;;;230.53;116.97;;;;;;;;;;5009623;28;20212;-54
2022/11/09 04:23:06;;;;;;;229.03;116.93;;;;;;;;;;5009231;28;20594;-54
2022/11/09 04:25:33;;;;;;;226.93;115.60;;;;;;;;;;5006783;28;20569;-54
2022/11/09 04:28:00;;;;;;;223.13;113.80;;;;;;;;;;5005151;28;20217;-54
2022/11/09 04:30:29;;;;;;;229.07;115.07;;;;;;;;;;4997376;28;21157;-54
2022/11/09 04:32:55;;;;;;;231.73;116.77;;;;;;;;;;5001290;28;20268;-54
2022/11/09 04:35:21;;;;;;;228.97;117.03;;;;;;;;;;4989267;28;20204;-54
2022/11/09 04:37:57;;;;;;;231.13;117.70;;;;;;;;;;5006329;28;20218;-54
2022/11/09 04:40:24;;;;;;;224.03;114.77;;;;;;;;;;5009676;28;20566;-54
2022/11/09 04:42:49;;;;;;;245.63;120.77;;;;;;;;;;5009977;28;20225;-54
2022/11/09 04:45:15;;;;;;;229.30;117.37;;;;;;;;;;5008417;28;20573;-54
2022/11/09 04:47:41;;;;;;;221.27;114.87;;;;;;;;;;5010037;28;20705;-54
2022/11/09 04:50:08;;;;;;;231.30;118.03;;;;;;;;;;5006910;28;20216;-54
2022/11/09 04:52:33;;;;;;;244.50;122.37;;;;;;;;;;5006935;28;20213;-54
2022/11/09 04:54:59;;;;;;;240.10;121.17;;;;;;;;;;5008523;28;20733;-53
2022/11/09 04:57:25;;;;;;;236.67;120.17;;;;;;;;;;5008779;28;20197;-53
2022/11/09 04:59:51;;;;;;;221.37;114.20;;;;;;;;;;5009649;28;20219;-54
2022/11/09 05:02:17;;;;;;;239.53;121.93;;;;;;;;;;5007225;28;20213;-53
2022/11/09 05:04:43;;;;;;;245.70;123.03;;;;;;;;;;5003784;28;20233;-53
2022/11/09 05:07:09;;;;;;;230.90;118.17;;;;;;;;;;5008530;28;20212;-54
2022/11/09 05:09:35;;;;;;;249.40;127.37;;;;;;;;;;5009233;28;20260;-54
2022/11/09 05:12:01;;;;;;;223.37;117.27;;;;;;;;;;5002841;28;20181;-54
2022/11/09 05:14:27;;;;;;;232.87;121.93;;;;;;;;;;4998272;28;20239;-54
2022/11/09 05:16:53;;;;;;;242.57;125.03;;;;;;;;;;5004962;28;20252;-54
2022/11/09 05:19:19;;;;;;;237.90;124.23;;;;;;;;;;5005232;28;20219;-53
2022/11/09 05:21:44;;;;;;;242.23;123.83;;;;;;;;;;5004260;28;20209;-53
2022/11/09 05:24:11;;;;;;;219.57;118.07;;;;;;;;;;5006974;28;20661;-54
2022/11/09 05:26:38;;;;;;;228.40;119.33;;;;;;;;;;5007249;28;20213;-53
2022/11/09 05:29:06;;;;;;;240.73;124.63;;;;;;;;;;5005279;28;20221;-53
2022/11/09 05:31:32;;;;;;;239.67;122.83;;;;;;;;;;5008491;28;20212;-54
2022/11/09 05:33:58;;;;;;;236.87;123.03;;;;;;;;;;5009361;28;20213;-53
2022/11/09 05:36:25;;;;;;;237.13;120.87;;;;;;;;;;5004021;28;20212;-54
2022/11/09 05:38:51;;;;;;;251.53;126.53;;;;;;;;;;5009393;28;20288;-54
2022/11/09 05:41:17;;;;;;;251.83;126.17;;;;;;;;;;5003574;28;20303;-53
2022/11/09 05:43:43;;;;;;;238.53;121.57;;;;;;;;;;5006384;28;20208;-54
2022/11/09 05:46:09;;;;;;;249.20;128.07;;;;;;;;;;5007152;28;20219;-54
2022/11/09 05:48:35;;;;;;;243.63;127.07;;;;;;;;;;5008492;28;20200;-54
2022/11/09 05:51:02;;;;;;;253.80;129.57;;;;;;;;;;5005215;28;20216;-53
2022/11/09 05:53:28;;;;;;;235.03;120.87;;;;;;;;;;5008995;28;20205;-54
2022/11/09 05:55:54;;;;;;;239.67;122.63;;;;;;;;;;5007389;28;20362;-53
2022/11/09 05:58:20;;;;;;;242.63;123.27;;;;;;;;;;5007233;28;20685;-54
2022/11/09 06:00:46;;;;;;;249.37;125.03;;;;;;;;;;5002939;28;20219;-54
2022/11/09 06:03:12;;;;;;;249.63;125.93;;;;;;;;;;5008037;28;20228;-54
2022/11/09 06:05:39;;;;;;;242.60;125.20;;;;;;;;;;5001918;28;20213;-54
2022/11/09 06:08:06;;;;;;;243.93;125.50;;;;;;;;;;5005757;28;20236;-52
2022/11/09 06:10:32;;;;;;;247.20;124.43;;;;;;;;;;5009943;28;20262;-53
2022/11/09 06:12:58;;;;;;;243.17;125.87;;;;;;;;;;5010049;28;20677;-53
2022/11/09 06:15:24;;;;;;;250.03;126.63;;;;;;;;;;5011342;28;20199;-54
2022/11/09 06:17:51;;;;;;;258.60;131.03;;;;;;;;;;5011105;28;20295;-52
2022/11/09 06:20:17;;;;;;;260.37;130.93;;;;;;;;;;5009040;28;20300;-54
2022/11/09 06:22:43;;;;;;;242.67;124.37;;;;;;;;;;5012322;28;20308;-54
2022/11/09 06:25:09;;;;;;;251.17;125.27;;;;;;;;;;5012427;28;20295;-53
2022/11/09 06:27:35;;;;;;;228.53;117.97;;;;;;;;;;5012509;28;20203;-54
2022/11/09 06:30:01;;;;;;;246.30;126.53;;;;;;;;;;5012852;28;20235;-54
2022/11/09 06:32:27;;;;;;;253.20;129.63;;;;;;;;;;5011809;28;20209;-53
2022/11/09 06:34:53;;;;;;;242.13;124.63;;;;;;;;;;5010678;28;20299;-53
2022/11/09 06:37:19;;;;;;;262.00;131.43;;;;;;;;;;5010815;28;20292;-52
2022/11/09 06:39:46;;;;;;;269.97;134.67;;;;;;;;;;5010865;28;20216;-53
2022/11/09 06:42:12;;;;;;;254.27;128.93;;;;;;;;;;5010890;28;20291;-53
2022/11/09 06:44:38;;;;;;;253.77;124.73;;;;;;;;;;5010751;28;20300;-53
2022/11/09 06:47:04;;;;;;;263.20;131.60;;;;;;;;;;5013326;28;20213;-51
2022/11/09 06:49:30;;;;;;;280.43;136.90;;;;;;;;;;5016976;28;20225;-53
2022/11/09 06:51:56;;;;;;;253.40;128.87;;;;;;;;;;5000525;28;20568;-52
2022/11/09 06:54:22;;;;;;;272.17;137.90;;;;;;;;;;5018242;28;20200;-53
2022/11/09 06:56:48;;;;;;;251.30;123.10;;;;;;;;;;5017143;28;20220;-53
2022/11/09 06:59:14;;;;;;;269.33;131.57;;;;;;;;;;5018271;28;20209;-52
2022/11/09 07:01:40;;;;;;;242.00;119.57;;;;;;;;;;5017880;28;20228;-53
2022/11/09 07:04:06;;;;;;;239.47;119.60;;;;;;;;;;5018693;28;20213;-53
2022/11/09 07:06:32;;;;;;;260.97;126.13;;;;;;;;;;5018461;28;20227;-54
2022/11/09 07:08:57;;;;;;;269.63;130.43;;;;;;;;;;4994730;28;20205;-53
2022/11/09 07:11:23;;;;;;;251.90;121.23;;;;;;;;;;4992330;28;20299;-54
2022/11/09 07:13:49;;;;;;;237.80;116.77;;;;;;;;;;5010493;28;20225;-52
2022/11/09 07:16:16;;;;;;;271.70;133.83;;;;;;;;;;5009827;28;20267;-53
2022/11/09 07:18:42;;;;;;;277.93;133.03;;;;;;;;;;5010007;28;20530;-53
2022/11/09 07:21:08;;;;;;;263.40;126.37;;;;;;;;;;4992443;28;20541;-52
2022/11/09 07:23:34;;;;;;;257.50;125.47;;;;;;;;;;5010597;28;20315;-52
2022/11/09 07:26:00;;;;;;;256.40;123.67;;;;;;;;;;5009068;28;20248;-53
2022/11/09 07:28:26;;;;;;;254.73;125.03;;;;;;;;;;5010195;28;20221;-53
2022/11/09 07:30:52;;;;;;;257.33;126.20;;;;;;;;;;4992329;28;20263;-53
2022/11/09 07:33:19;;;;;;;244.13;121.73;;;;;;;;;;5010373;28;20320;-53
2022/11/09 07:35:45;;;;;;;277.07;132.23;;;;;;;;;;5009817;28;20247;-53
2022/11/09 07:38:12;;;;;;;270.60;130.87;;;;;;;;;;5010074;28;20215;-53
2022/11/09 07:40:38;;;;;;;266.47;129.40;;;;;;;;;;5009560;28;20701;-54
2022/11/09 07:43:05;;;;;;;250.20;123.43;;;;;;;;;;5009705;28;20216;-53
2022/11/09 07:45:32;;;;;;;253.07;125.33;;;;;;;;;;5009443;28;20177;-54
2022/11/09 07:47:59;;;;;;;275.93;132.23;;;;;;;;;;5010255;28;20177;-53
2022/11/09 07:50:25;;;;;;;266.10;127.67;;;;;;;;;;5009675;28;20224;-53
2022/11/09 07:52:51;;;;;;;264.37;127.10;;;;;;;;;;5009481;28;20217;-54
2022/11/09 07:55:17;;;;;;;289.23;138.80;;;;;;;;;;5008759;28;20221;-53
2022/11/09 07:57:43;;;;;;;274.00;132.50;;;;;;;;;;5009170;28;20194;-54
2022/11/09 08:00:10;;;;;;;267.20;128.40;;;;;;;;;;5009802;28;20177;-53
2022/11/09 08:02:36;;;;;;;269.83;129.57;;;;;;;;;;4991362;28;20270;-54
2022/11/09 08:05:02;;;;;;;269.23;131.33;;;;;;;;;;5008893;28;20307;-53
2022/11/09 08:07:28;;;;;;;279.10;132.57;;;;;;;;;;5009296;28;20828;-53
2022/11/09 08:09:54;;;;;;;284.47;133.57;;;;;;;;;;5008884;28;20569;-54
2022/11/09 08:12:20;;;;;;;249.03;121.87;;;;;;;;;;5009525;28;20181;-53
2022/11/09 08:14:46;;;;;;;261.00;127.50;;;;;;;;;;5008694;28;20265;-53
2022/11/09 08:17:12;;;;;;;276.20;132.87;;;;;;;;;;5008394;28;20669;-53
2022/11/09 08:19:38;;;;;;;291.10;137.57;;;;;;;;;;5008717;28;20217;-54
2022/11/09 08:22:04;;;;;;;268.23;128.50;;;;;;;;;;5009188;28;20221;-54
2022/11/09 08:24:30;;;;;;;278.63;134.53;;;;;;;;;;5008844;28;20626;-52
2022/11/09 08:26:56;;;;;;;273.87;131.60;;;;;;;;;;4991192;28;20528;-53
2022/11/09 08:29:22;;;;;;;278.27;133.03;;;;;;;;;;5008604;28;20316;-53
2022/11/09 08:31:51;;;;;;;267.90;128.77;;;;;;;;;;5007715;28;20577;-54
2022/11/09 08:34:17;;;;;;;280.27;133.63;;;;;;;;;;5008750;28;20230;-53
2022/11/09 08:36:43;;;;;;;280.60;133.97;;;;;;;;;;5008604;28;20197;-53
2022/11/09 08:39:09;;;;;;;262.67;129.23;;;;;;;;;;5008783;28;20260;-53
2022/11/09 08:41:35;;;;;;;252.43;123.40;;;;;;;;;;5008062;28;20213;-53
2022/11/09 08:44:01;;;;;;;277.03;133.37;;;;;;;;;;5008974;28;20221;-52
2022/11/09 08:46:27;;;;;;;283.23;136.83;;;;;;;;;;5008114;28;20213;-53
2022/11/09 08:48:53;;;;;;;264.73;126.70;;;;;;;;;;5008415;28;20673;-54
2022/11/09 08:51:19;;;;;;;286.20;136.33;;;;;;;;;;5008394;28;20176;-53
2022/11/09 08:53:45;;;;;;;291.67;136.23;;;;;;;;;;5007933;28;20231;-53
2022/11/09 08:56:11;;;;;;;289.33;137.47;;;;;;;;;;5007691;28;20754;-53
2022/11/09 08:58:38;;;;;;;314.17;147.57;;;;;;;;;;4989712;28;20263;-54
2022/11/09 09:01:10;;;;;;;286.53;137.27;;;;;;;;;;5005782;28;20339;-53
2022/11/09 09:03:36;;;;;;;288.50;137.37;;;;;;;;;;5007651;28;20557;-53
2022/11/09 09:06:06;;;;;;;278.00;132.73;;;;;;;;;;5008411;28;20208;-52
2022/11/09 09:08:32;;;;;;;278.13;131.70;;;;;;;;;;5008204;28;20227;-53
2022/11/09 09:11:02;;;;;;;291.57;139.30;;;;;;;;;;5007491;28;20712;-54
2022/11/09 09:13:28;;;;;;;292.33;137.63;;;;;;;;;;4990146;28;20228;-53
2022/11/09 09:15:53;;;;;;;287.47;137.50;;;;;;;;;;5007056;28;20592;-53
2022/11/09 09:18:19;;;;;;;284.97;134.87;;;;;;;;;;5005959;28;20177;-53
2022/11/09 09:20:45;;;;;;;279.47;131.40;;;;;;;;;;5007939;28;20231;-53
2022/11/09 09:23:14;;;;;;;308.90;146.60;;;;;;;;;;5005010;28;20297;-52
2022/11/09 09:25:39;;;;;;;287.70;135.33;;;;;;;;;;5007366;28;20243;-53
2022/11/09 09:28:05;;;;;;;288.57;137.33;;;;;;;;;;5007449;28;20720;-52
2022/11/09 09:30:31;;;;;;;311.97;148.80;;;;;;;;;;5006774;28;20193;-53
2022/11/09 09:32:59;;;;;;;306.33;145.30;;;;;;;;;;5004384;28;20456;-54
2022/11/09 09:35:25;;;;;;;294.40;137.43;;;;;;;;;;5006360;28;20304;-54
2022/11/09 09:37:51;;;;;;;269.03;128.67;;;;;;;;;;5007620;28;20700;-52
2022/11/09 09:40:24;;;;;;;285.70;133.53;;;;;;;;;;5007202;28;20215;-51
2022/11/09 09:42:50;;;;;;;288.53;135.40;;;;;;;;;;5007196;28;20227;-51
2022/11/09 09:45:28;;;;;;;284.53;137.17;;;;;;;;;;5007850;28;20279;-51
2022/11/09 09:47:54;;;;;;;269.07;130.17;;;;;;;;;;5007459;28;20834;-52
2022/11/09 09:50:36;;;;;;;284.80;133.80;;;;;;;;;;5007695;28;20346;-52
2022/11/09 09:53:06;;;;;;;293.07;137.07;;;;;;;;;;4989850;28;20217;-52
2022/11/09 09:55:35;;;;;;;293.53;138.23;;;;;;;;;;5007057;28;20217;-52
2022/11/09 09:58:17;;;;;;;285.17;133.63;;;;;;;;;;5007303;28;20324;-52
2022/11/09 10:00:43;;;;;;;291.03;140.73;;;;;;;;;;5006853;28;20161;-52
2022/11/09 10:03:19;;;;;;;288.70;136.93;;;;;;;;;;5007380;28;20700;-52
2022/11/09 10:05:58;;;;;;;282.40;134.87;;;;;;;;;;5006997;28;20224;-54
2022/11/09 10:08:33;;;;;;;275.30;129.73;;;;;;;;;;5007293;28;20228;-54
2022/11/09 10:11:17;;;;;;;285.53;134.67;;;;;;;;;;5006912;28;20212;-55
2022/11/09 10:13:55;;;;;;;285.23;134.23;;;;;;;;;;5004347;28;20209;-55
2022/11/09 10:16:34;;;;;;;287.27;133.80;;;;;;;;;;5007140;28;20217;-55
2022/11/09 10:19:06;;;;;;;285.60;134.77;;;;;;;;;;5007448;28;20308;-52
2022/11/09 10:21:49;;;;;;;314.87;147.07;;;;;;;;;;5005555;28;20522;-52
2022/11/09 10:24:18;;;;;;;306.53;136.47;;;;;;;;;;5006284;28;20588;-53
2022/11/09 10:26:50;;;;;;;261.73;125.87;;;;;;;;;;5006955;28;20450;-52
2022/11/09 10:29:20;;;;;;;362.97;155.30;;;;;;;;;;5023490;23;20228;-51
2022/11/09 10:31:47;;;;;;;321.40;146.77;;;;;;;;;;5026067;28;20231;-51
2022/11/09 10:34:19;;;;;;;301.27;141.03;;;;;;;;;;5025989;28;20291;-50
2022/11/09 10:36:49;;;;;;;305.63;141.37;;;;;;;;;;5026067;28;20714;-50
2022/11/09 10:39:15;;;;;;;313.87;143.80;;;;;;;;;;5026562;28;20523;-51
2022/11/09 10:41:45;;;;;;;288.50;138.33;;;;;;;;;;5025554;28;20616;-51
2022/11/09 10:44:15;;;;;;;324.27;148.57;;;;;;;;;;5025868;28;20239;-51
2022/11/09 10:47:00;;;;;;;313.40;143.33;;;;;;;;;;5026292;28;20688;-51
2022/11/09 10:49:26;;;;;;;330.47;149.10;;;;;;;;;;5027269;28;20220;-51
2022/11/09 10:51:51;;;;;;;284.43;130.00;;;;;;;;;;5027015;28;20607;-51
2022/11/09 10:54:23;;;;;;;326.93;149.43;;;;;;;;;;5027631;28;20183;-51
2022/11/09 10:56:51;;;;;;;330.87;147.23;;;;;;;;;;5029318;28;20658;-51
2022/11/09 10:59:32;;;;;;;326.40;144.50;;;;;;;;;;5030432;28;20212;-51
2022/11/09 11:01:58;;;;;;;334.30;159.60;;;;;;;;;;5030593;28;20587;-51
2022/11/09 11:04:25;;;;;;;295.57;135.73;;;;;;;;;;5030454;28;20246;-51
2022/11/09 11:06:51;;;;;;;324.83;144.97;;;;;;;;;;5030592;28;20301;-50
2022/11/09 11:09:20;;;;;;;334.13;149.33;;;;;;;;;;5030916;28;20184;-50
2022/11/09 11:11:46;;;;;;;314.87;141.20;;;;;;;;;;5030260;28;20258;-50
2022/11/09 11:14:12;;;;;;;319.73;146.27;;;;;;;;;;5030514;28;20224;-50
2022/11/09 11:16:39;;;;;;;312.47;141.17;;;;;;;;;;5029894;28;20220;-51
2022/11/09 11:19:05;;;;;;;331.37;150.47;;;;;;;;;;5030177;28;20266;-51
2022/11/09 11:21:31;;;;;;;337.87;152.80;;;;;;;;;;5030006;28;20532;-51
2022/11/09 11:24:11;;;;;;;331.87;150.63;;;;;;;;;;5031113;28;20267;-51
2022/11/09 11:26:56;;;;;;;325.03;146.20;;;;;;;;;;5030248;28;20258;-50
2022/11/09 11:29:51;;;;;;;330.40;155.57;;;;;;;;;;5029158;28;20215;-50
2022/11/09 11:32:18;;;;;;;325.73;150.63;;;;;;;;;;5016051;28;20224;-51
2022/11/09 11:34:44;;;;;;;345.50;160.63;;;;;;;;;;5029151;28;20218;-50
2022/11/09 11:37:18;;;;;;;335.50;151.43;;;;;;;;;;5028977;28;20703;-50
2022/11/09 11:39:47;;;;;;;323.27;146.93;;;;;;;;;;5029239;28;20395;-51
2022/11/09 11:42:19;;;;;;;361.03;167.07;;;;;;;;;;5028927;28;20667;-51
2022/11/09 11:44:53;;;;;;;345.10;159.27;;;;;;;;;;5028719;28;20243;-51
2022/11/09 11:47:25;;;;;;;313.97;143.73;;;;;;;;;;5029743;28;20216;-51
2022/11/09 11:50:11;;;;;;;346.77;156.60;;;;;;;;;;5029657;28;20299;-51
2022/11/09 11:52:48;;;;;;;342.17;155.20;;;;;;;;;;5029159;28;20227;-50
2022/11/09 11:55:29;;;;;;;347.60;156.87;;;;;;;;;;5029399;28;20270;-53
2022/11/09 11:58:04;;;;;;;289.40;144.17;;;;;;;;;;5029312;28;20555;-51
2022/11/09 12:00:33;;;;;;;291.40;143.93;;;;;;;;;;5029394;28;20160;-51
2022/11/09 12:03:17;;;;;;;305.43;152.30;;;;;;;;;;5029558;28;20199;-51
2022/11/09 12:05:55;;;;;;;293.37;152.50;;;;;;;;;;5029202;28;20644;-51
2022/11/09 12:08:26;;;;;;;312.03;157.50;;;;;;;;;;5029285;28;20632;-51
2022/11/09 12:11:04;;;;;;;287.47;146.87;;;;;;;;;;5029797;28;20222;-51
2022/11/09 12:14:05;;;;;;;251.10;136.07;;;;;;;;;;5029013;28;20308;-51
2022/11/09 12:16:38;;;;;;;255.80;141.43;;;;;;;;;;4967719;28;20222;-51
2022/11/09 12:19:29;;;;;;;265.47;145.47;;;;;;;;;;5020316;28;20298;-51
2022/11/09 12:22:05;;;;;;;263.50;145.50;;;;;;;;;;5022103;28;20634;-51
2022/11/09 12:24:31;;;;;;;276.35;149.38;;;;;;;;;;5029479;28;20175;-51
2022/11/09 12:26:57;;;;;;;280.70;149.07;;;;;;;;;;5029151;28;20766;-52
2022/11/09 12:29:28;;;;;;;283.27;150.87;;;;;;;;;;5028789;28;20223;-52
2022/11/09 12:31:59;;;;;;;257.10;140.43;;;;;;;;;;5029495;28;20228;-52
2022/11/09 12:34:32;;;;;;;273.83;148.73;;;;;;;;;;5026288;28;20265;-52
2022/11/09 12:37:03;;;;;;;280.20;149.30;;;;;;;;;;5029259;28;20725;-52
2022/11/09 12:39:32;;;;;;;268.15;148.52;;;;;;;;;;5029610;28;20279;-52
2022/11/09 12:42:00;;;;;;;259.40;145.63;;;;;;;;;;5029559;28;20755;-51
2022/11/09 12:44:27;;;;;;;280.53;154.13;;;;;;;;;;5029183;28;20220;-51
2022/11/09 12:46:56;;;;;;;279.83;156.23;;;;;;;;;;5029058;28;20699;-52
2022/11/09 12:49:28;;;;;;;295.97;162.50;;;;;;;;;;5027697;28;20274;-52
2022/11/09 12:51:54;;;;;;;302.00;167.85;;;;;;;;;;5028930;28;20219;-52
2022/11/09 12:54:20;;;;;;;321.60;178.90;;;;;;;;;;5029545;28;20184;-52
2022/11/09 12:56:54;;;;;;;325.15;180.85;;;;;;;;;;5028855;28;20235;-52
2022/11/09 12:59:40;;;;;;;333.33;183.55;;;;;;;;;;5028156;28;20223;-52
2022/11/09 13:02:14;;;;;;;341.65;186.88;;;;;;;;;;5018405;28;20224;-52
2022/11/09 13:04:53;;;;;;;340.10;177.85;;;;;;;;;;5028637;28;20235;-52
2022/11/09 13:07:28;;;;;;;352.45;179.75;;;;;;;;;;5028346;28;20251;-52
2022/11/09 13:09:55;;;;;;;326.15;170.00;;;;;;;;;;5028686;28;20211;-52
2022/11/09 13:12:31;;;;;;;352.83;183.13;;;;;;;;;;5028884;28;20179;-52
2022/11/09 13:15:11;;;;;;;349.67;188.85;;;;;;;;;;5028732;28;20204;-52
2022/11/09 13:17:37;;;;;;;335.65;186.77;;;;;;;;;;5028614;28;20219;-52
2022/11/09 13:20:23;;;;;;;310.08;171.15;;;;;;;;;;5028221;28;20330;-52
2022/11/09 13:22:49;;;;;;;315.55;171.85;;;;;;;;;;5028305;28;20712;-52
2022/11/09 13:25:46;;;;;;;313.05;169.55;;;;;;;;;;5027046;28;20266;-52
2022/11/09 13:28:27;;;;;;;315.85;174.05;;;;;;;;;;5015239;28;20266;-52
2022/11/09 13:30:57;;;;;;;297.48;161.07;;;;;;;;;;5027255;28;20216;-52
2022/11/09 13:33:24;;;;;;;290.75;159.18;;;;;;;;;;5027767;28;20183;-52
2022/11/09 13:35:50;;;;;;;296.23;165.23;;;;;;;;;;5027350;28;20616;-52
2022/11/09 13:38:17;;;;;;;306.00;168.27;;;;;;;;;;5027162;28;20220;-54
2022/11/09 13:40:49;;;;;;;276.23;153.00;;;;;;;;;;5027386;28;20223;-51
2022/11/09 13:43:30;;;;;;;280.45;152.95;;;;;;;;;;5027176;28;20303;-51
2022/11/09 13:46:15;;;;;;;280.00;150.57;;;;;;;;;;5027321;28;20730;-52
2022/11/09 13:48:44;;;;;;;269.77;145.90;;;;;;;;;;5027306;28;20255;-51
2022/11/09 13:51:13;;;;;;;282.07;148.93;;;;;;;;;;5027515;28;20172;-52
2022/11/09 13:53:38;;;;;;;285.60;153.90;;;;;;;;;;5027083;28;20220;-52
2022/11/09 13:56:31;;;;;;;298.63;157.33;;;;;;;;;;5027040;28;20212;-51
2022/11/09 13:59:15;;;;;;;258.20;143.18;;;;;;;;;;5024681;28;20790;-52